Windsorville, Connecticut
Current Conditions -  °F | °C
As of 7:51 PM on Sunday 21 Dec 2014 (Local Time) from KBDL Reporting Station
Overcast Overcast  
Wind Chill: -2°   Ceiling: 1700
Heat Index:   Visibility: 10mi
Dew Point: -1°   Wind: 6mph
Humidity: 85%   Direction: 360°N
Pressure: 30.34"   Gusts: NA
Location:  41.9042°N, 72.5445°W
Report Text: KBDL 220051Z 36005KT 10SM BKN017 OVC040 01/M01 A3034 RMK AO2 SLP275 T00111011 $
Loading
Personal Weather Stations






























Interactive Weather Map New forecast layout! Learn more

10-Day Weather Forecast

Advertisements
Track Severe Weather on mobile